Time;durP1;ratioP1;P1;durP2;ratioP2;P2;SDS_P1;SDS_P2;PMS_P1;PMS_P2;Temp;Humidity;BMP_temperature;BMP_pressure;BME280_temperature;BME280_humidity;BME280_pressure;Samples;Min_cycle;Max_cycle;Signal;HPM_P1;HPM_P2
2022/08/25 00:00:49;;;;;;;23.15;11.68;;;;;;;20.99;97.61;100924.75;3457476;83;99067;-90
2022/08/25 00:05:50;;;;;;;14.23;10.25;;;;;;;20.95;97.76;100921.27;3491051;82;31719;-90
2022/08/25 00:10:51;;;;;;;17.55;10.23;;;;;;;20.89;97.88;100910.42;3454388;82;98496;-91
2022/08/25 00:15:52;;;;;;;19.37;10.40;;;;;;;20.86;98.12;100911.25;3453807;82;32128;-90
2022/08/25 00:20:54;;;;;;;16.07;10.15;;;;;;;20.84;98.16;100907.30;3441386;82;98477;-91
2022/08/25 00:25:55;;;;;;;16.62;9.15;;;;;;;20.80;98.41;100910.79;3529464;82;30906;-90
2022/08/25 00:30:57;;;;;;;17.20;10.45;;;;;;;20.77;98.45;100917.27;3527611;83;52068;-90
2022/08/25 00:35:59;;;;;;;19.20;9.30;;;;;;;20.73;98.51;100917.95;3517074;82;98999;-90
2022/08/25 00:41:06;;;;;;;17.37;10.28;;;;;;;20.71;98.76;100923.97;3529483;83;31679;-90
2022/08/25 00:46:09;;;;;;;16.73;9.30;;;;;;;20.68;98.78;100916.47;3530840;82;99058;-91
2022/08/25 00:51:15;;;;;;;18.82;9.28;;;;;;;20.65;99.00;100915.15;3523774;82;31648;-89
2022/08/25 00:56:17;;;;;;;15.58;9.50;;;;;;;20.61;99.01;100910.23;3524946;82;98952;-90
2022/08/25 01:01:18;;;;;;;16.95;9.05;;;;;;;20.56;99.25;100909.34;3532646;82;31991;-91
2022/08/25 01:06:20;;;;;;;18.20;9.08;;;;;;;20.55;99.27;100927.35;3531272;82;98694;-91
2022/08/25 01:11:21;;;;;;;17.25;10.50;;;;;;;20.52;99.45;100920.62;3524104;82;31640;-91
2022/08/25 01:16:22;;;;;;;17.70;9.23;;;;;;;20.49;99.64;100921.47;3517514;82;98845;-90
2022/08/25 01:21:27;;;;;;;15.03;9.23;;;;;;;20.48;99.71;100919.13;3529500;83;70278;-91
2022/08/25 01:26:32;;;;;;;14.25;9.43;;;;;;;20.45;99.94;100928.36;3499113;82;98726;-90
2022/08/25 01:31:35;;;;;;;18.52;9.48;;;;;;;20.42;100.00;100928.62;3507756;83;31624;-90
2022/08/25 01:36:36;;;;;;;17.95;10.75;;;;;;;20.41;100.00;100934.63;3500728;82;98900;-91
2022/08/25 01:42:04;;;;;;;18.80;10.60;;;;;;;20.34;100.00;100938.98;3508962;82;31699;-91
2022/08/25 01:47:06;;;;;;;19.00;10.38;;;;;;;20.23;100.00;100937.02;3502456;82;98937;-91
2022/08/25 01:52:25;;;;;;;14.47;9.98;;;;;;;20.21;100.00;100936.66;3515426;82;31686;-91
2022/08/25 01:57:30;;;;;;;20.95;12.37;;;;;;;20.20;100.00;100936.47;3479527;82;98914;-89
2022/08/25 02:02:31;;;;;;;23.02;12.35;;;;;;;20.18;100.00;100941.11;3509328;83;26102;-91
2022/08/25 02:07:32;;;;;;;22.48;14.70;;;;;;;20.14;100.00;100950.16;3502261;83;98948;-90
2022/08/25 02:12:35;;;;;;;23.38;15.28;;;;;;;20.16;100.00;100939.33;3515168;83;31927;-90
2022/08/25 02:17:36;;;;;;;26.02;16.65;;;;;;;20.12;100.00;100934.41;3502162;82;99034;-90
2022/08/25 02:22:37;;;;;;;25.00;17.23;;;;;;;20.13;100.00;100935.22;3500588;83;31651;-89
2022/08/25 02:27:38;;;;;;;25.37;16.37;;;;;;;20.12;100.00;100940.00;3475850;83;99146;-89
2022/08/25 02:32:40;;;;;;;30.45;16.82;;;;;;;20.10;100.00;100928.48;3482957;83;31731;-90
2022/08/25 02:37:41;;;;;;;30.65;18.62;;;;;;;20.11;100.00;100935.64;3463878;82;98978;-90
2022/08/25 02:42:43;;;;;;;27.77;19.15;;;;;;;20.11;100.00;100930.67;3483746;82;30752;-91
2022/08/25 02:47:45;;;;;;;31.42;21.10;;;;;;;20.09;100.00;100931.09;3475925;82;99352;-93
2022/08/25 02:52:49;;;;;;;32.00;20.43;;;;;;;20.13;100.00;100926.23;3480426;83;31691;-91
2022/08/25 02:57:49;;;;;;;27.85;17.87;;;;;;;20.16;100.00;100923.95;3476056;82;99025;-90
2022/08/25 03:02:50;;;;;;;30.62;19.10;;;;;;;20.16;100.00;100928.16;3483128;82;31877;-89
2022/08/25 03:07:51;;;;;;;25.08;17.48;;;;;;;20.15;100.00;100925.19;3476610;83;99057;-90
2022/08/25 03:12:52;;;;;;;21.15;14.40;;;;;;;20.16;100.00;100920.39;3481592;82;32080;-91
2022/08/25 03:17:54;;;;;;;25.27;16.97;;;;;;;20.16;100.00;100910.61;3470792;82;98993;-90
2022/08/25 03:22:55;;;;;;;20.90;14.40;;;;;;;20.20;100.00;100912.70;3485662;82;30910;-91
2022/08/25 03:27:57;;;;;;;25.30;16.82;;;;;;;20.20;100.00;100911.31;3510586;82;98898;-90
2022/08/25 03:32:58;;;;;;;26.30;15.13;;;;;;;20.22;100.00;100904.70;3532324;82;51451;-91
2022/08/25 03:38:00;;;;;;;21.07;13.60;;;;;;;20.18;100.00;100894.99;3484032;82;99022;-90
2022/08/25 03:43:02;;;;;;;21.62;14.23;;;;;;;20.17;100.00;100898.98;3528562;82;71382;-91
2022/08/25 03:48:03;;;;;;;20.60;12.85;;;;;;;20.19;100.00;100897.16;3484585;82;99287;-90
2022/08/25 03:53:05;;;;;;;21.02;14.47;;;;;;;20.19;100.00;100899.36;3524593;83;31746;-91
2022/08/25 03:58:06;;;;;;;19.70;13.72;;;;;;;20.20;100.00;100904.31;3513314;82;98973;-90
2022/08/25 04:03:07;;;;;;;21.68;14.26;;;;;;;20.16;100.00;100903.00;3513844;83;30507;-91
2022/08/25 04:08:08;;;;;;;17.60;13.22;;;;;;;20.14;100.00;100908.23;3518257;82;99049;-90
2022/08/25 04:13:10;;;;;;;19.98;14.30;;;;;;;20.12;100.00;100911.28;3537053;82;30517;-90
2022/08/25 04:18:12;;;;;;;22.95;15.55;;;;;;;20.10;100.00;100927.70;3509255;83;99387;-92
2022/08/25 04:23:13;;;;;;;24.07;14.55;;;;;;;20.02;100.00;100925.63;3527783;83;29794;-89
2022/08/25 04:28:14;;;;;;;23.83;15.18;;;;;;;19.98;100.00;100919.31;3530995;82;98975;-91
2022/08/25 04:33:15;;;;;;;24.77;14.55;;;;;;;19.96;100.00;100920.95;3519860;82;31035;-90
2022/08/25 04:38:16;;;;;;;21.15;15.00;;;;;;;19.98;100.00;100932.48;3521856;82;99025;-91
2022/08/25 04:43:17;;;;;;;18.57;14.05;;;;;;;19.99;100.00;100937.64;3519775;82;31693;-91
2022/08/25 04:48:19;;;;;;;21.77;15.53;;;;;;;20.04;100.00;100937.75;3526586;82;99026;-90
2022/08/25 04:53:21;;;;;;;27.73;14.90;;;;;;;20.08;100.00;100937.91;3537948;83;32217;-92
2022/08/25 04:58:22;;;;;;;23.47;14.03;;;;;;;20.11;100.00;100936.27;3522064;82;99123;-91
2022/08/25 05:03:23;;;;;;;20.12;12.63;;;;;;;20.17;100.00;100935.94;3534746;83;29846;-91
2022/08/25 05:08:24;;;;;;;29.67;15.50;;;;;;;20.26;100.00;100930.55;3524838;82;99012;-91
2022/08/25 05:13:26;;;;;;;18.12;13.85;;;;;;;20.34;100.00;100926.41;3518394;82;29791;-91
2022/08/25 05:18:30;;;;;;;25.17;13.38;;;;;;;20.39;100.00;100923.88;3528126;82;99163;-92
2022/08/25 05:23:32;;;;;;;21.52;12.53;;;;;;;20.44;100.00;100933.16;3520656;82;31652;-91
2022/08/25 05:28:33;;;;;;;21.25;13.25;;;;;;;20.47;100.00;100929.51;3495575;82;99284;-92
2022/08/25 05:33:38;;;;;;;20.32;12.00;;;;;;;20.52;100.00;100937.99;3513628;82;31741;-90
2022/08/25 05:38:40;;;;;;;18.93;11.77;;;;;;;20.57;100.00;100928.50;3490292;83;99253;-92
2022/08/25 05:43:44;;;;;;;19.05;10.78;;;;;;;20.67;100.00;100928.87;3508122;83;32334;-91
2022/08/25 05:48:45;;;;;;;19.05;11.97;;;;;;;20.76;100.00;100929.06;3502504;83;99207;-91
2022/08/25 05:53:50;;;;;;;19.32;10.48;;;;;;;20.90;100.00;100920.39;3508365;83;31344;-92
2022/08/25 05:58:51;;;;;;;15.68;10.32;;;;;;;21.01;100.00;100924.32;3502385;83;99089;-91
2022/08/25 06:03:52;;;;;;;19.12;11.25;;;;;;;21.11;100.00;100928.28;3514961;83;32290;-91
2022/08/25 06:08:54;;;;;;;18.90;11.68;;;;;;;21.22;100.00;100930.22;3495587;82;99038;-90
2022/08/25 06:13:55;;;;;;;21.40;11.83;;;;;;;21.31;100.00;100935.97;3512800;82;84541;-91
2022/08/25 06:18:56;;;;;;;19.82;12.70;;;;;;;21.44;100.00;100934.66;3507500;82;99203;-91
2022/08/25 06:23:57;;;;;;;22.20;12.90;;;;;;;21.58;100.00;100940.69;3500024;83;30350;-91
2022/08/25 06:28:58;;;;;;;25.08;12.85;;;;;;;21.69;100.00;100937.66;3479692;83;98955;-90
2022/08/25 06:33:59;;;;;;;23.92;13.18;;;;;;;21.86;100.00;100942.00;3511928;82;31398;-91
2022/08/25 06:39:00;;;;;;;20.65;12.63;;;;;;;22.07;100.00;100942.83;3509042;82;98964;-91
2022/08/25 06:44:02;;;;;;;21.90;12.70;;;;;;;22.29;100.00;100946.61;3515795;83;32532;-90
2022/08/25 06:49:05;;;;;;;21.33;13.48;;;;;;;22.44;100.00;100940.16;3485409;83;98997;-91
2022/08/25 06:54:08;;;;;;;22.37;13.03;;;;;;;22.60;100.00;100936.48;3508658;83;31767;-91
2022/08/25 06:59:10;;;;;;;20.77;13.15;;;;;;;22.73;100.00;100944.32;3504727;82;98997;-90
2022/08/25 07:04:11;;;;;;;19.10;12.20;;;;;;;22.86;100.00;100940.30;3508773;83;26403;-88
2022/08/25 07:09:13;;;;;;;17.12;11.55;;;;;;;23.01;100.00;100937.22;3509403;82;99130;-91
2022/08/25 07:14:17;;;;;;;21.05;12.45;;;;;;;23.03;98.63;100936.14;3513393;82;32334;-91
2022/08/25 07:19:19;;;;;;;22.25;12.35;;;;;;;23.15;98.22;100942.37;3509316;82;99055;-91
2022/08/25 07:24:22;;;;;;;18.30;10.65;;;;;;;23.31;97.92;100942.27;3505816;83;25878;-91
2022/08/25 07:29:27;;;;;;;18.02;10.88;;;;;;;23.51;97.68;100941.41;3518488;82;98712;-90
2022/08/25 07:39:48;;;;;;;19.98;11.22;;;;;;;23.74;96.30;100936.79;3509708;82;98852;-91
2022/08/25 07:44:49;;;;;;;18.30;11.10;;;;;;;23.89;95.18;100934.30;3517691;82;31614;-90
2022/08/25 07:49:56;;;;;;;16.60;8.13;;;;;;;23.96;94.97;100939.05;3522053;82;98737;-90
2022/08/25 07:54:57;;;;;;;16.42;8.98;;;;;;;24.06;93.87;100944.12;3518082;83;32269;-91
2022/08/25 07:59:58;;;;;;;17.98;8.40;;;;;;;24.09;92.49;100946.03;3523271;82;98792;-90
2022/08/25 08:05:00;;;;;;;14.50;8.83;;;;;;;24.26;93.16;100943.96;3501421;83;26392;-91
2022/08/25 08:10:02;;;;;;;15.83;8.18;;;;;;;24.36;92.31;100952.63;3513335;82;98650;-90
2022/08/25 08:15:04;;;;;;;13.28;7.37;;;;;;;24.49;91.63;100951.16;3518356;83;32225;-89
2022/08/25 08:20:07;;;;;;;16.45;8.65;;;;;;;24.60;90.78;100944.54;3492102;83;98636;-90
2022/08/25 08:25:10;;;;;;;18.55;9.35;;;;;;;24.74;90.38;100943.37;3527563;82;31652;-91
2022/08/25 08:30:12;;;;;;;17.02;8.65;;;;;;;25.07;89.90;100946.51;3523698;82;98479;-91
2022/08/25 08:35:16;;;;;;;14.20;8.18;;;;;;;25.38;88.65;100936.78;3507408;82;33727;-90
2022/08/25 08:40:19;;;;;;;12.37;7.05;;;;;;;25.98;90.46;100939.86;3530512;82;98539;-91
2022/08/25 08:45:36;;;;;;;14.15;7.58;;;;;;;26.49;87.68;100945.02;3537430;83;28113;-90
2022/08/25 08:50:58;;;;;;;17.42;7.92;;;;;;;27.11;86.37;100943.27;3527021;82;98551;-90
2022/08/25 08:56:05;;;;;;;12.13;6.60;;;;;;;27.55;83.56;100941.48;3513410;82;98716;-90
2022/08/25 09:01:12;;;;;;;16.73;7.78;;;;;;;28.16;84.89;100937.92;3521258;83;25952;-90
2022/08/25 09:06:38;;;;;;;15.58;6.90;;;;;;;28.64;77.85;100937.92;3508207;83;98824;-90
2022/08/25 09:12:06;;;;;;;17.57;7.47;;;;;;;28.86;79.32;100931.22;3522543;83;25928;-89
2022/08/25 09:17:33;;;;;;;18.67;7.72;;;;;;;29.34;77.38;100926.23;3515303;82;98794;-89
2022/08/25 09:23:13;;;;;;;10.75;6.22;;;;;;;29.96;74.25;100926.55;3516207;83;26923;-88
2022/08/25 09:28:29;;;;;;;14.93;5.90;;;;;;;30.88;75.39;100920.16;3501909;82;98944;-88
2022/08/25 09:33:33;;;;;;;19.65;7.15;;;;;;;31.65;72.99;100919.28;3497364;82;25883;-88
2022/08/25 09:38:34;;;;;;;;;;;;;;;32.16;68.12;100916.12;3432133;82;98959;-88
2022/08/25 09:43:43;;;;;;;13.15;6.00;;;;;;;31.88;65.65;100910.33;3475525;82;25977;-88
2022/08/25 09:48:53;;;;;;;13.75;6.40;;;;;;;32.62;68.48;100901.58;3467135;82;98705;-89
2022/08/25 09:54:14;;;;;;;15.28;7.10;;;;;;;33.21;64.85;100891.30;3384537;85;26527;-88
2022/08/25 09:59:28;;;;;;;15.78;7.35;;;;;;;33.80;63.98;100886.76;3388208;84;98993;-89
2022/08/25 10:04:32;;;;;;;;;;;;;;;34.03;61.61;100888.19;3407899;84;25855;-90
2022/08/25 10:09:40;;;;;;;15.68;6.47;;;;;;;34.33;60.42;100876.19;3421357;82;84937;-90
2022/08/25 10:14:41;;;;;;;12.93;5.80;;;;;;;34.88;60.97;100872.13;3456637;82;28199;-90
2022/08/25 10:19:43;;;;;;;17.12;5.72;;;;;;;35.33;59.76;100860.36;3412581;82;98611;-88
2022/08/25 10:24:44;;;;;;;14.93;6.62;;;;;;;35.21;57.96;100861.13;3461110;82;26238;-88
2022/08/25 10:30:03;;;;;;;14.75;6.53;;;;;;;34.99;56.79;100858.47;3416596;83;98577;-88
2022/08/25 10:35:24;;;;;;;16.23;6.58;;;;;;;34.89;54.99;100850.79;3450924;83;25933;-88
2022/08/25 10:40:56;;;;;;;16.73;5.78;;;;;;;34.36;56.08;100836.55;3416545;82;98524;-88
2022/08/25 10:46:35;;;;;;;18.42;7.25;;;;;;;34.42;56.78;100839.35;3426089;82;98785;-88
2022/08/25 10:51:57;;;;;;;14.07;8.45;;;;;;;34.44;56.06;100837.52;3468718;83;26349;-88
2022/08/25 10:57:31;;;;;;;15.45;5.85;;;;;;;33.95;55.70;100828.62;3440015;83;98704;-88
2022/08/25 11:03:11;;;;;;;18.27;5.92;;;;;;;33.94;56.50;100823.45;3488999;83;25852;-88
2022/08/25 11:08:32;;;;;;;18.67;6.50;;;;;;;33.77;55.97;100816.37;3483688;83;99121;-87
2022/08/25 11:13:45;;;;;;;15.72;5.70;;;;;;;34.04;56.38;100802.60;3493468;83;26508;-87
2022/08/25 11:18:57;;;;;;;19.95;5.65;;;;;;;34.23;55.81;100800.66;3470292;82;98692;-88
2022/08/25 11:24:05;;;;;;;14.53;6.30;;;;;;;34.62;54.87;100786.81;3484111;82;83624;-87
2022/08/25 11:29:13;;;;;;;15.53;5.83;;;;;;;34.86;55.97;100792.56;3452729;82;98938;-87
2022/08/25 11:34:15;;;;;;;14.13;5.87;;;;;;;35.26;55.56;100797.32;3422482;84;26678;-88
2022/08/25 11:39:45;;;;;;;17.40;6.55;;;;;;;35.55;54.83;100790.72;3465338;83;98846;-87
2022/08/25 11:45:08;;;;;;;18.60;6.42;;;;;;;35.48;52.32;100794.84;3470444;84;26154;-87
2022/08/25 11:50:33;;;;;;;18.35;6.08;;;;;;;35.05;54.09;100794.84;3465530;82;98605;-87
2022/08/25 11:55:42;;;;;;;22.42;9.30;;;;;;;35.16;54.05;100789.63;3468083;83;26933;-88
2022/08/25 12:00:44;;;;;;;17.80;6.78;;;;;;;35.37;52.74;100795.75;3465504;82;98499;-87
2022/08/25 12:06:11;;;;;;;21.25;6.60;;;;;;;34.97;53.12;100784.53;3472115;82;26439;-87
2022/08/25 12:11:34;;;;;;;13.80;5.67;;;;;;;34.92;53.34;100778.97;3462631;83;26466;-88
2022/08/25 12:16:40;;;;;;;16.42;5.00;;;;;;;35.04;53.58;100771.80;3456774;82;98637;-87
2022/08/25 12:21:42;;;;;;;14.15;5.47;;;;;;;34.86;53.55;100753.95;3468778;82;26047;-88
2022/08/25 12:26:51;;;;;;;18.27;5.85;;;;;;;34.97;53.56;100757.36;3456839;82;98786;-87
2022/08/25 12:32:02;;;;;;;17.15;5.60;;;;;;;34.58;52.04;100752.02;3465589;82;26594;-87
2022/08/25 12:37:20;;;;;;;12.85;5.30;;;;;;;34.02;52.93;100761.59;3430086;84;98974;-87
2022/08/25 12:42:32;;;;;;;18.48;5.53;;;;;;;33.89;54.46;100751.44;3475039;83;26443;-87
2022/08/25 12:47:33;;;;;;;16.90;6.03;;;;;;;33.90;54.28;100752.31;3481837;83;99103;-85
2022/08/25 12:52:37;;;;;;;16.17;5.90;;;;;;;33.82;54.02;100755.63;3497009;83;27031;-87
2022/08/25 12:57:56;;;;;;;14.73;5.90;;;;;;;33.35;54.45;100746.16;3494898;83;98675;-87
2022/08/25 13:03:12;;;;;;;20.95;6.25;;;;;;;33.37;55.38;100744.33;3500526;83;27274;-87
2022/08/25 13:09:00;;;;;;;19.73;6.53;;;;;;;33.39;54.79;100742.39;3473438;82;99107;-87
2022/08/25 13:14:24;;;;;;;23.60;7.15;;;;;;;33.15;55.25;100745.84;3496454;82;26226;-87
2022/08/25 13:19:27;;;;;;;15.03;5.75;;;;;;;33.17;55.65;100737.52;3526683;82;98635;-87
2022/08/25 13:24:38;;;;;;;21.35;6.00;;;;;;;33.13;56.34;100726.27;3531270;82;44234;-86
2022/08/25 13:29:54;;;;;;;13.90;5.65;;;;;;;33.22;56.07;100719.60;3404310;82;98628;-87
2022/08/25 13:35:24;;;;;;;18.30;6.05;;;;;;;33.44;56.14;100719.51;3393360;84;26441;-87
2022/08/25 13:40:31;;;;;;;16.10;5.70;;;;;;;33.43;55.69;100722.25;3371581;84;98664;-87
2022/08/25 13:45:36;;;;;;;17.95;6.28;;;;;;;33.52;55.86;100725.44;3394627;84;26425;-86
2022/08/25 13:50:41;;;;;;;20.92;6.55;;;;;;;33.54;55.74;100725.03;3386966;84;98465;-86
2022/08/25 13:55:57;;;;;;;21.60;7.03;;;;;;;33.53;54.99;100714.13;3422239;84;27207;-87
2022/08/25 14:01:30;;;;;;;17.02;5.45;;;;;;;33.34;53.86;100707.52;3444175;82;25967;-85
2022/08/25 14:06:32;;;;;;;16.65;6.45;;;;;;;32.87;54.55;100705.89;3399392;84;98975;-86
2022/08/25 14:11:55;;;;;;;15.98;5.65;;;;;;;32.84;55.61;100702.64;3392993;84;26372;-85
2022/08/25 14:17:08;;;;;;;26.33;6.47;;;;;;;32.69;54.94;100692.19;3399158;84;98943;-86
2022/08/25 14:22:13;;;;;;;19.62;6.28;;;;;;;32.25;54.41;100697.33;3415852;84;44951;-86
2022/08/25 14:27:14;;;;;;;25.45;6.60;;;;;;;32.04;55.73;100699.52;3454337;82;98908;-87
2022/08/25 14:32:16;;;;;;;17.90;5.12;;;;;;;31.96;55.61;100690.72;3519441;82;32163;-86
2022/08/25 14:37:19;;;;;;;19.62;5.83;;;;;;;31.92;57.00;100688.02;3500197;82;98769;-86
2022/08/25 14:42:21;;;;;;;20.05;5.92;;;;;;;31.98;58.06;100682.42;3425816;84;48271;-86
2022/08/25 14:47:23;;;;;;;18.17;5.03;;;;;;;31.70;56.29;100674.50;3442849;83;98976;-86
2022/08/25 14:52:28;;;;;;;23.65;6.25;;;;;;;31.45;56.07;100674.73;3455041;83;25907;-86
2022/08/25 14:57:29;;;;;;;17.55;5.87;;;;;;;31.25;56.09;100670.05;3468793;82;98720;-86
2022/08/25 15:02:33;;;;;;;21.82;6.53;;;;;;;31.30;57.29;100674.97;3474164;82;32337;-85
2022/08/25 15:12:54;;;;;;;15.75;5.50;;;;;;;30.73;56.75;100656.66;3456756;83;26504;-86
2022/08/25 15:17:55;;;;;;;11.22;5.17;;;;;;;30.58;57.75;100651.14;3448414;82;98973;-86
2022/08/25 15:22:56;;;;;;;18.25;5.80;;;;;;;30.48;58.83;100647.58;3453240;83;36222;-86
2022/08/25 15:27:57;;;;;;;22.93;6.03;;;;;;;30.49;59.33;100638.55;3458490;82;98914;-87
2022/08/25 15:32:58;;;;;;;19.15;5.60;;;;;;;30.33;59.09;100638.45;3437864;84;31627;-86
2022/08/25 15:37:59;;;;;;;23.27;6.08;;;;;;;30.19;58.87;100638.75;3415199;84;99013;-85
2022/08/25 15:43:00;;;;;;;24.72;6.83;;;;;;;30.02;59.61;100640.67;3436035;84;39454;-86
2022/08/25 15:48:01;;;;;;;18.27;5.80;;;;;;;29.76;59.79;100640.61;3458437;84;98905;-86
2022/08/25 15:53:02;;;;;;;19.62;6.35;;;;;;;29.60;60.31;100625.64;3468688;84;31586;-86
2022/08/25 15:58:04;;;;;;;18.87;6.22;;;;;;;29.53;60.92;100619.73;3457725;83;98873;-85
2022/08/25 16:03:05;;;;;;;22.00;6.00;;;;;;;29.39;60.97;100618.45;3463065;83;91719;-88
2022/08/25 16:08:07;;;;;;;18.32;5.78;;;;;;;29.22;61.34;100616.89;3451865;82;99745;-86
2022/08/25 16:13:09;;;;;;;19.57;5.92;;;;;;;29.00;62.02;100613.82;3463676;83;32138;-86
2022/08/25 16:18:10;;;;;;;16.02;5.28;;;;;;;28.97;62.97;100604.09;3449938;83;98784;-86
2022/08/25 16:23:13;;;;;;;19.05;6.90;;;;;;;28.93;63.38;100607.13;3456330;84;31964;-87
2022/08/25 16:28:16;;;;;;;19.95;6.25;;;;;;;28.87;63.88;100605.52;3456142;83;98761;-88
2022/08/25 16:33:17;;;;;;;16.00;6.33;;;;;;;28.76;63.96;100598.31;3457147;84;25643;-87
2022/08/25 16:38:18;;;;;;;16.60;6.28;;;;;;;28.56;64.03;100591.23;3449119;83;98642;-88
2022/08/25 16:43:19;;;;;;;17.17;6.47;;;;;;;28.44;64.70;100593.80;3451346;83;32614;-87
2022/08/25 16:48:21;;;;;;;18.65;6.75;;;;;;;28.38;65.37;100597.19;3443831;84;99014;-88
2022/08/25 16:58:43;;;;;;;15.35;6.10;;;;;;;28.18;66.14;100591.47;3440759;84;98915;-87
2022/08/25 17:03:44;;;;;;;19.90;6.65;;;;;;;28.09;66.62;100589.55;3450669;84;26547;-87
2022/08/25 17:08:48;;;;;;;14.87;6.20;;;;;;;28.01;66.85;100586.22;3440103;83;98973;-87
2022/08/25 17:13:52;;;;;;;15.13;6.03;;;;;;;27.93;67.25;100583.64;3444506;84;31603;-87
2022/08/25 17:18:54;;;;;;;16.62;6.28;;;;;;;27.82;67.63;100591.95;3446005;83;98748;-87
2022/08/25 17:23:56;;;;;;;14.70;5.33;;;;;;;27.71;68.30;100579.02;3445759;83;26494;-87
2022/08/25 17:28:59;;;;;;;16.17;6.42;;;;;;;27.59;68.71;100577.30;3446441;83;98808;-87
2022/08/25 17:34:00;;;;;;;18.05;6.05;;;;;;;27.45;69.13;100590.80;3496278;83;25805;-86
2022/08/25 17:39:01;;;;;;;17.40;7.17;;;;;;;27.32;69.63;100587.50;3493031;82;99017;-88
2022/08/25 17:44:04;;;;;;;18.25;6.03;;;;;;;27.19;70.47;100589.20;3498653;83;31677;-87
2022/08/25 17:49:05;;;;;;;16.80;5.97;;;;;;;27.07;70.90;100590.86;3474967;83;98499;-88
2022/08/25 17:54:06;;;;;;;16.70;5.85;;;;;;;26.94;71.23;100594.61;3489054;82;31891;-88
2022/08/25 17:59:08;;;;;;;17.05;6.22;;;;;;;26.79;71.78;100584.70;3489299;82;98811;-88
2022/08/25 18:04:11;;;;;;;16.67;6.50;;;;;;;26.64;72.15;100585.29;3502472;82;26533;-89
2022/08/25 18:09:12;;;;;;;15.93;6.47;;;;;;;26.50;72.59;100588.84;3487361;83;98608;-89
2022/08/25 18:14:15;;;;;;;16.65;6.62;;;;;;;26.31;72.79;100587.39;3491527;82;31727;-89
2022/08/25 18:19:16;;;;;;;15.98;7.10;;;;;;;26.17;73.67;100583.89;3492080;83;98891;-89
2022/08/25 18:24:17;;;;;;;15.85;6.55;;;;;;;26.05;74.21;100584.88;3497201;82;32878;-89
2022/08/25 18:29:18;;;;;;;20.60;6.67;;;;;;;25.92;74.94;100580.72;3486277;82;98670;-89
2022/08/25 18:34:22;;;;;;;18.77;8.90;;;;;;;25.83;75.58;100587.80;3496503;82;31721;-89
2022/08/25 18:44:43;;;;;;;18.27;7.40;;;;;;;25.61;76.23;100592.91;3480197;82;26027;-89
2022/08/25 18:49:44;;;;;;;19.05;7.55;;;;;;;25.50;76.84;100606.73;3486070;82;98609;-89
2022/08/25 18:54:45;;;;;;;18.27;7.40;;;;;;;25.41;77.31;100614.59;3470977;83;32773;-88
2022/08/25 18:59:47;;;;;;;18.27;7.00;;;;;;;25.32;77.90;100613.80;3500904;82;98831;-90
2022/08/25 19:04:51;;;;;;;17.25;7.35;;;;;;;25.20;78.13;100623.98;3497745;83;35791;-89
2022/08/25 19:09:51;;;;;;;18.20;7.22;;;;;;;25.10;78.68;100612.57;3523392;82;98657;-89
2022/08/25 19:14:53;;;;;;;15.13;7.95;;;;;;;25.00;78.82;100611.62;3519933;83;31661;-90
2022/08/25 19:19:54;;;;;;;15.13;7.08;;;;;;;24.90;78.59;100614.31;3516108;81;103045;-89
2022/08/25 19:24:55;;;;;;;20.80;6.60;;;;;;;24.81;78.69;100615.72;3523858;82;31693;-88
2022/08/25 19:29:56;;;;;;;22.95;7.67;;;;;;;24.70;78.61;100611.97;3519540;81;98657;-89
2022/08/25 19:34:57;;;;;;;17.98;6.95;;;;;;;24.62;78.96;100608.53;3498468;83;31661;-88
2022/08/25 19:39:58;;;;;;;20.55;7.58;;;;;;;24.54;79.29;100603.01;3496079;83;98750;-89
2022/08/25 19:44:59;;;;;;;16.55;6.92;;;;;;;24.48;79.29;100607.08;3513716;83;31643;-89
2022/08/25 19:50:01;;;;;;;19.52;7.58;;;;;;;24.41;79.58;100593.30;3497688;83;98846;-89
2022/08/25 19:55:02;;;;;;;18.48;7.03;;;;;;;24.37;79.87;100597.52;3513533;83;32521;-88
2022/08/25 20:00:08;;;;;;;17.17;6.67;;;;;;;24.33;80.26;100595.47;3492144;82;98928;-88
2022/08/25 20:05:11;;;;;;;23.02;7.80;;;;;;;24.29;80.46;100601.87;3508389;83;27075;-88
2022/08/25 20:10:13;;;;;;;20.05;7.33;;;;;;;24.21;80.58;100598.59;3503342;82;98542;-90
2022/08/25 20:15:15;;;;;;;18.30;6.97;;;;;;;24.15;80.83;100601.84;3503703;82;39644;-89
2022/08/25 20:20:20;;;;;;;16.70;6.93;;;;;;;24.09;80.96;100595.91;3498871;82;98846;-89
2022/08/25 20:25:26;;;;;;;16.85;6.78;;;;;;;24.02;81.07;100599.78;3514725;83;27065;-89
2022/08/25 20:30:29;;;;;;;27.35;7.80;;;;;;;23.98;81.26;100602.59;3516517;82;98487;-89
2022/08/25 20:35:30;;;;;;;25.37;8.30;;;;;;;23.94;81.51;100600.53;3532708;83;31603;-90
2022/08/25 20:40:31;;;;;;;22.60;7.10;;;;;;;23.90;81.79;100596.47;3519797;81;98530;-90
2022/08/25 20:45:33;;;;;;;27.90;7.47;;;;;;;23.85;81.97;100588.61;3543149;81;31628;-88
2022/08/25 20:50:38;;;;;;;24.30;7.35;;;;;;;23.82;83.73;100600.00;3522737;81;98769;-89
2022/08/25 20:55:41;;;;;;;25.30;6.83;;;;;;;23.78;82.80;100604.37;3537279;83;26449;-90
2022/08/25 21:00:44;;;;;;;28.32;8.48;;;;;;;23.76;83.49;100599.81;3535015;81;98671;-88
2022/08/25 21:05:45;;;;;;;27.02;6.72;;;;;;;23.72;83.46;100604.02;3514303;83;31683;-89
2022/08/25 21:10:46;;;;;;;24.27;8.75;;;;;;;23.69;83.87;100606.33;3521464;81;98759;-90
2022/08/25 21:15:47;;;;;;;20.15;7.65;;;;;;;23.67;84.36;100604.01;3521487;81;31774;-88
2022/08/25 21:20:48;;;;;;;20.85;6.92;;;;;;;23.62;84.15;100601.80;3536620;81;98357;-90
2022/08/25 21:25:50;;;;;;;27.13;8.60;;;;;;;23.56;84.90;100605.05;3514451;81;32341;-89
2022/08/25 21:30:53;;;;;;;31.82;8.08;;;;;;;23.49;85.05;100598.28;3534010;82;98507;-90
2022/08/25 21:35:54;;;;;;;23.57;8.93;;;;;;;23.44;85.21;100604.49;3525648;81;32068;-89
2022/08/25 21:40:55;;;;;;;31.02;8.78;;;;;;;23.40;85.96;100597.45;3512988;82;98330;-88
2022/08/25 21:45:57;;;;;;;19.77;7.37;;;;;;;23.35;85.82;100591.82;3530790;82;98730;-88
2022/08/25 21:51:16;;;;;;;26.97;8.93;;;;;;;23.31;86.27;100590.38;3523441;82;32292;-89
2022/08/25 21:56:22;;;;;;;25.75;9.03;;;;;;;23.25;86.81;100597.22;3530877;82;98850;-91
2022/08/25 22:01:23;;;;;;;27.37;9.65;;;;;;;23.18;87.37;100591.09;3523276;83;63129;-89
2022/08/25 22:06:24;;;;;;;28.05;9.35;;;;;;;23.12;88.38;100601.31;3525937;82;99133;-88
2022/08/25 22:11:27;;;;;;;23.40;9.73;;;;;;;23.06;89.27;100591.28;3535408;83;160710;-88
2022/08/25 22:16:28;;;;;;;25.52;8.55;;;;;;;23.02;89.89;100597.67;3530812;82;99128;-89
2022/08/25 22:21:31;;;;;;;19.52;8.43;;;;;;;22.97;89.68;100580.01;3499357;83;32333;-89
2022/08/25 22:26:33;;;;;;;22.45;9.60;;;;;;;22.93;90.25;100581.36;3527316;82;98905;-89
2022/08/25 22:31:35;;;;;;;29.07;10.05;;;;;;;22.90;90.78;100582.29;3524398;82;32555;-89
2022/08/25 22:36:38;;;;;;;23.42;8.88;;;;;;;22.85;91.20;100581.47;3507125;82;99073;-89
2022/08/25 22:41:39;;;;;;;22.93;9.93;;;;;;;22.69;91.43;100560.00;3542657;81;31637;-89
2022/08/25 22:46:40;;;;;;;16.60;7.35;;;;;;;22.78;91.97;100576.13;3536878;83;98786;-89
2022/08/25 22:51:41;;;;;;;26.95;8.95;;;;;;;22.76;91.72;100568.16;3539543;83;32570;-88
2022/08/25 22:56:42;;;;;;;25.70;8.58;;;;;;;22.74;92.22;100564.23;3538666;82;98683;-89
2022/08/25 23:01:44;;;;;;;21.97;8.10;;;;;;;22.69;92.00;100562.81;3499961;83;31611;-88
2022/08/25 23:06:46;;;;;;;26.97;9.15;;;;;;;22.68;92.06;100561.86;3520691;81;98760;-90
2022/08/25 23:11:47;;;;;;;24.55;9.68;;;;;;;22.60;92.78;100557.11;3527803;82;33003;-89
2022/08/25 23:16:49;;;;;;;20.32;8.88;;;;;;;22.54;93.83;100555.34;3524104;81;98823;-89
2022/08/25 23:22:08;;;;;;;27.15;9.10;;;;;;;22.45;94.56;100550.44;3541213;83;26740;-89
2022/08/25 23:27:13;;;;;;;31.23;10.23;;;;;;;22.41;94.96;100544.77;3535082;81;98589;-88
2022/08/25 23:32:17;;;;;;;25.50;10.47;;;;;;;22.38;95.28;100542.25;3509765;81;26587;-89
2022/08/25 23:37:18;;;;;;;24.77;10.23;;;;;;;22.32;96.25;100537.06;3504006;82;98894;-89